LS Concorde — ZDHJ7 — position and weather

sailwx.info

Track history (hours):
 
Tides and Currents Weather Stations Pressure Air Temp Water Temp Dewpoint Dewpoint Depression Visibility Wind Speed Wind Dir Waves Ship Positions

LS Concorde

Last reported at 2017-May-30 01:00 UTC. Time now 2017-May-30 01:20 UTC.
Position N 51°16' E 004°21'.

Length 99 m; draft 5.6 m.

Type: Tanker. MMSI: 236329000.

Date/timePositionNaut miles runAvg speedWind from/ knotsBaromVisibWave heightAir tempDewpointWater temp
2017-May-30 01:00N 51°16' E 004°21'0 0.0
2017-May-30 00:30N 51°16' E 004°21'0 0.0
2017-May-30 00:00N 51°16' E 004°21'0 0.0
2017-May-29 23:30N 51°16' E 004°21'0 0.0
2017-May-29 23:00N 51°16' E 004°21'0 0.0
2017-May-29 22:30N 51°16' E 004°21'0 0.0
2017-May-29 22:00N 51°16' E 004°21'0 0.0
2017-May-29 21:24N 51°16' E 004°21'0 0.0
2017-May-29 21:00N 51°16' E 004°21'0 0.0
2017-May-29 20:24N 51°16' E 004°21'0 0.0
2017-May-29 20:00N 51°16' E 004°21'0 0.0
2017-May-29 19:27N 51°16' E 004°21'0 0.0
2017-May-29 19:00N 51°16' E 004°21'0 0.0
2017-May-29 18:30N 51°16' E 004°21'0 0.0
2017-May-29 18:00N 51°16' E 004°21'0 0.0
2017-May-29 17:30N 51°16' E 004°21'0 0.0
2017-May-29 17:00N 51°16' E 004°21'2 3.6
2017-May-29 16:30N 51°17' E 004°20'4 7.5
2017-May-29 16:00N 51°21' E 004°17'0 0.0
2017-May-29 15:30N 51°21' E 004°17'0 0.1
2017-May-29 15:00N 51°21' E 004°17'2 3.3
2017-May-29 14:30N 51°21' E 004°15'4 3.9
2017-May-29 13:30N 51°23' E 004°09'3 6.9
2017-May-29 13:00N 51°22' E 004°03'4 8.2
2017-May-29 12:30N 51°26' E 004°00'611.8
2017-May-29 12:00N 51°22' E 003°54'612.1
2017-May-29 11:30N 51°22' E 003°45'612.9
2017-May-29 11:00N 51°25' E 003°36'5 9.3
2017-May-29 10:30N 51°29' E 003°30'713.9
2017-May-29 10:01N 51°34' E 003°24'1012.6
2017-May-29 09:12N 51°43' E 003°15'23 9.4
2017-May-29 06:47N 51°47' E 002°39'411.8
2017-May-29 06:26N 51°50' E 002°34'511.0
2017-May-29 06:00N 51°53' E 002°27'813.2
2017-May-29 05:25N 51°53' E 002°15'513.1
2017-May-29 05:00N 51°52' E 002°06'714.3
2017-May-29 04:31N 51°49' E 001°56'612.5
2017-May-29 04:00N 51°49' E 001°46'612.4
2017-May-29 03:30N 51°51' E 001°37'510.2
2017-May-29 03:00N 51°56' E 001°33'611.3
2017-May-29 02:30N 51°56' E 001°24'4 8.7
2017-May-29 02:00N 51°58' E 001°17'4 7.2
2017-May-29 01:30N 52°00' E 001°13'3 6.3
2017-May-29 01:00N 52°03' E 001°10'0 0.0
2017-May-29 00:30N 52°03' E 001°10'0 0.0
2017-May-29 00:00N 52°03' E 001°10'0 0.0
2017-May-28 23:30N 52°03' E 001°10'0 0.0
2017-May-28 23:00N 52°03' E 001°10'0 0.0
2017-May-28 22:30N 52°03' E 001°10'0 0.0
2017-May-28 22:00N 52°03' E 001°10'0 0.0
2017-May-28 21:30N 52°03' E 001°10'0 0.0
2017-May-28 21:00N 52°03' E 001°10'0 0.0
2017-May-28 20:30N 52°03' E 001°10'0 0.0
2017-May-28 20:00N 52°03' E 001°10'0 0.0
2017-May-28 19:30N 52°03' E 001°10'0 0.0
2017-May-28 19:00N 52°03' E 001°10'0 0.0
2017-May-28 18:30N 52°03' E 001°10'0 0.0
2017-May-28 18:00N 52°03' E 001°10'0 0.0
2017-May-28 17:30N 52°03' E 001°10'0 0.0
2017-May-28 17:00N 52°03' E 001°10'0 0.0
2017-May-28 16:30N 52°03' E 001°10'0 0.0
2017-May-28 16:00N 52°03' E 001°10'0 0.0
2017-May-28 15:30N 52°03' E 001°10'0 0.0
2017-May-28 15:00N 52°03' E 001°10'0 0.0
2017-May-28 14:00N 52°03' E 001°10'0 0.0
2017-May-28 13:30N 52°03' E 001°10'0 0.0
2017-May-28 13:00N 52°03' E 001°10'0 0.0
2017-May-28 12:30N 52°03' E 001°10'0 0.0
2017-May-28 12:00N 52°03' E 001°10'0 0.0
2017-May-28 11:30N 52°03' E 001°10'0 0.0
2017-May-28 11:00N 52°03' E 001°10'0 0.0
2017-May-28 10:30N 52°03' E 001°10'0 0.0
2017-May-28 10:00N 52°03' E 001°10'0 0.0
2017-May-28 09:30N 52°03' E 001°10'0 0.0
2017-May-28 09:00N 52°03' E 001°10'0 0.0
2017-May-28 08:30N 52°03' E 001°10'0 0.0
2017-May-28 08:00N 52°03' E 001°10'0 0.0
2017-May-28 07:30N 52°03' E 001°10'0 0.0
2017-May-28 07:00N 52°03' E 001°10'0 0.0
2017-May-28 06:30N 52°03' E 001°10'0 0.0
2017-May-28 06:00N 52°03' E 001°10'0 0.0
2017-May-28 05:30N 52°03' E 001°10'1 2.9
2017-May-28 05:00N 52°01' E 001°10'4 7.9
2017-May-28 04:30N 51°59' E 001°16'4 8.7
2017-May-28 04:00N 51°56' E 001°19'510.7
2017-May-28 03:30N 51°56' E 001°28'4 7.7
2017-May-28 03:00N 51°58' E 001°34'511.0
2017-May-28 02:30N 51°52' E 001°35'510.9
2017-May-28 02:00N 51°51' E 001°44'510.3
2017-May-28 01:30N 51°50' E 001°52'510.0
2017-May-28 01:00N 51°52' E 001°59'510.3
2017-May-28 00:30N 51°54' E 002°07'610.2
2017-May-27 23:57N 51°54' E 002°16'510.6
2017-May-27 23:30N 51°54' E 002°24'1411.6
2017-May-27 22:20N 51°48' E 002°43'412.9
2017-May-27 22:00N 51°46' E 002°50'713.3
2017-May-27 21:29N 51°45' E 003°01'713.5
2017-May-27 20:58N 51°45' E 003°12'511.8
2017-May-27 20:30N 51°41' E 003°18'712.7
2017-May-27 20:00N 51°35' E 003°24'612.7
2017-May-27 19:30N 51°30' E 003°29'612.1
2017-May-27 19:00N 51°26' E 003°37'510.8
2017-May-27 18:30N 51°23' E 003°43'5 9.5
2017-May-27 18:00N 51°20' E 003°49'1 1.1
2017-May-27 17:30N 51°19' E 003°49'3 6.9
2017-May-27 17:00N 51°16' E 003°50'4 7.1
2017-May-27 16:30N 51°12' E 003°48'0 0.0
2017-May-27 16:00N 51°12' E 003°48'0 0.0
2017-May-27 15:27N 51°12' E 003°48'0 0.0
2017-May-27 14:33N 51°12' E 003°48'0 0.0
2017-May-27 14:15N 51°12' E 003°48'0 0.0
2017-May-27 07:27N 51°12' E 003°48'0 0.0
2017-May-27 06:51N 51°12' E 003°48'0 0.0
2017-May-27 02:51N 51°12' E 003°48'0 0.0
2017-May-27 02:03N 51°12' E 003°48'0 0.0
2017-May-27 01:45N 51°12' E 003°48'0 0.0
2017-May-27 01:21N 51°12' E 003°48'0 0.0
2017-May-27 00:51N 51°12' E 003°48'0 0.0
2017-May-26 23:21N 51°12' E 003°48'0 0.0
2017-May-26 21:45N 51°12' E 003°48'0 0.0
2017-May-26 20:39N 51°12' E 003°48'0 0.0
2017-May-26 20:09N 51°12' E 003°48'0 0.0
2017-May-26 19:33N 51°12' E 003°48'0 0.0
2017-May-26 17:00N 51°12' E 003°48'0 0.1
2017-May-26 16:31N 51°12' E 003°48'3 5.2
2017-May-26 16:00N 51°15' E 003°49'4 7.7
2017-May-26 15:30N 51°19' E 003°50'2 3.2
2017-May-26 15:00N 51°20' E 003°49'7 6.6
2017-May-26 14:00N 51°25' E 003°42'5 8.9
2017-May-26 13:30N 51°26' E 003°35'4 7.3
2017-May-26 13:00N 51°28' E 003°31'4 8.4
2017-May-26 12:30N 51°31' E 003°26'4 8.1
2017-May-26 12:00N 51°35' E 003°24'510.1
2017-May-26 11:30N 51°39' E 003°19'610.8
2017-May-26 11:00N 51°44' E 003°16'611.2
2017-May-26 10:30N 51°49' E 003°21'0 0.1
2017-May-26 09:57N 51°49' E 003°21'0 0.0
2017-May-26 07:54N 51°49' E 003°21'0 0.0
2017-May-26 06:51N 51°49' E 003°21'0 0.1
2017-May-26 06:29N 51°49' E 003°21'0 0.1
2017-May-26 05:59N 51°49' E 003°21'0 0.1
2017-May-26 05:30N 51°49' E 003°21'0 0.0
2017-May-26 05:00N 51°49' E 003°21'0 0.1
2017-May-26 04:30N 51°49' E 003°21'0 0.0
2017-May-26 04:00N 51°49' E 003°21'0 0.0
2017-May-26 03:27N 51°49' E 003°21'0 0.0
2017-May-26 02:36N 51°49' E 003°21'0 0.0
2017-May-26 02:30N 51°49' E 003°21'0 0.0
2017-May-26 01:51N 51°49' E 003°21'0 0.0
2017-May-26 01:27N 51°49' E 003°21'0 0.0
2017-May-26 00:54N 51°49' E 003°21'0 0.0
2017-May-26 00:29N 51°49' E 003°21'0 0.1
2017-May-25 23:00N 51°49' E 003°21'0 0.0
2017-May-25 22:30N 51°49' E 003°21'0 0.0
2017-May-25 21:50N 51°49' E 003°21'0 0.0
2017-May-25 21:30N 51°49' E 003°21'0 0.0
2017-May-25 21:00N 51°49' E 003°21'0 0.0
2017-May-25 20:30N 51°49' E 003°21'0 0.0
2017-May-25 19:27N 51°49' E 003°21'0 0.0
2017-May-25 18:51N 51°49' E 003°21'0 0.0
2017-May-25 18:09N 51°49' E 003°21'0 0.1
2017-May-25 17:39N 51°49' E 003°21'0 0.0
2017-May-25 17:24N 51°49' E 003°21'0 0.0
2017-May-25 17:00N 51°49' E 003°21'0 0.1
2017-May-25 16:27N 51°49' E 003°21'0 0.0
2017-May-25 15:54N 51°49' E 003°21'0 0.1
2017-May-25 15:27N 51°49' E 003°21'0 0.0
2017-May-25 13:50N 51°49' E 003°21'0 0.0
2017-May-25 13:30N 51°49' E 003°21'0 0.0
2017-May-25 12:42N 51°49' E 003°21'0 0.0
2017-May-25 12:24N 51°49' E 003°21'0 0.0
2017-May-25 12:00N 51°49' E 003°21'0 0.1
2017-May-25 11:27N 51°49' E 003°21'0 0.1
2017-May-25 11:00N 51°49' E 003°21'0 0.1
2017-May-25 10:30N 51°49' E 003°21'0 0.0
2017-May-25 09:57N 51°49' E 003°21'0 0.0
2017-May-25 09:30N 51°49' E 003°21'0 0.0
2017-May-25 08:53N 51°49' E 003°21'0 0.0
2017-May-25 08:30N 51°49' E 003°21'0 0.0
2017-May-25 07:57N 51°49' E 003°21'0 0.0
2017-May-25 07:27N 51°49' E 003°21'0 0.0
2017-May-25 06:59N 51°49' E 003°21'0 0.0
2017-May-25 06:30N 51°49' E 003°21'0 0.0
2017-May-25 05:57N 51°49' E 003°21'0 0.0
2017-May-25 05:27N 51°49' E 003°21'0 0.1
2017-May-25 05:00N 51°49' E 003°21'0 0.1
2017-May-25 04:30N 51°49' E 003°21'0 0.0
2017-May-25 04:00N 51°49' E 003°21'0 0.0
2017-May-25 03:03N 51°49' E 003°21'0 0.0
2017-May-25 02:54N 51°49' E 003°21'0 0.0
2017-May-25 02:27N 51°49' E 003°21'0 0.0
2017-May-25 02:00N 51°49' E 003°21'0 0.0
2017-May-25 01:30N 51°49' E 003°21'0 0.0
2017-May-25 00:54N 51°49' E 003°21'0 0.0
2017-May-25 00:27N 51°49' E 003°21'0 0.0
2017-May-24 23:57N 51°49' E 003°21'0 0.0
2017-May-24 23:21N 51°49' E 003°21'0 0.1
2017-May-24 22:17N 51°49' E 003°21'0 0.1
2017-May-24 21:48N 51°49' E 003°21'0 0.0
2017-May-24 21:27N 51°49' E 003°21'0 0.0
2017-May-24 20:57N 51°49' E 003°21'0 0.0
2017-May-24 20:30N 51°49' E 003°21'0 0.0
2017-May-24 19:55N 51°49' E 003°21'0 0.0
2017-May-24 19:24N 51°49' E 003°21'0 0.0
2017-May-24 18:54N 51°49' E 003°21'0 0.0
2017-May-24 17:36N 51°49' E 003°21'0 0.0
2017-May-24 17:27N 51°49' E 003°21'0 0.0
2017-May-24 16:51N 51°49' E 003°21'0 0.1
2017-May-24 16:30N 51°49' E 003°21'0 0.1
2017-May-24 16:00N 51°49' E 003°21'0 0.0
2017-May-24 15:23N 51°49' E 003°21'0 0.0
2017-May-24 15:00N 51°49' E 003°21'0 0.0
2017-May-24 14:27N 51°49' E 003°21'0 0.0
2017-May-24 13:30N 51°49' E 003°21'0 0.0
2017-May-24 12:54N 51°49' E 003°21'0 0.1
2017-May-24 12:30N 51°49' E 003°21'0 0.0
2017-May-24 12:00N 51°49' E 003°21'0 0.0
2017-May-24 11:30N 51°49' E 003°21'0 0.0
2017-May-24 11:00N 51°49' E 003°21'0 0.3
2017-May-24 10:30N 51°49' E 003°21'510.8
2017-May-24 10:00N 51°49' E 003°12'4 8.3
2017-May-24 09:30N 51°51' E 003°17'713.3
2017-May-24 08:57N 51°59' E 003°20'613.6
2017-May-24 08:30N 52°05' E 003°20'713.6
2017-May-24 08:00N 52°12' E 003°21'713.8
2017-May-24 07:30N 52°18' E 003°24'714.0
2017-May-24 06:59N 52°25' E 003°27'914.1
2017-May-24 06:23N 52°34' E 003°30'713.3
2017-May-24 05:49N 52°40' E 003°36'1712.7
2017-May-24 04:30N 52°53' E 003°53'1911.7
2017-May-24 02:50N 53°06' E 004°17'2211.0
2017-May-24 00:50N 53°25' E 004°35'511.6
2017-May-24 00:26N 53°29' E 004°40'613.2
2017-May-23 23:59N 53°31' E 004°50'13111.8
2017-May-23 12:51N 53°59' E 008°27'714.1
2017-May-23 12:20N 53°57' E 008°39'513.1
2017-May-23 11:56N 53°53' E 008°43'511.1
2017-May-23 11:30N 53°50' E 008°51'611.1
2017-May-23 11:00N 53°51' E 008°60'510.6
2017-May-23 10:30N 53°53' E 009°08'1 1.1
2017-May-23 10:00N 53°54' E 009°09'0 1.0
2017-May-23 09:30N 53°54' E 009°09'3 6.4
2017-May-23 09:00N 53°56' E 009°13'4 8.3
2017-May-23 08:30N 53°60' E 009°17'4 8.4
2017-May-23 08:00N 54°04' E 009°19'56 6.7
2017-May-22 23:39N 54°35' E 010°39'211.2
2017-May-22 23:30N 54°35' E 010°41'911.3
2017-May-22 22:43N 54°36' E 010°57'211.3
2017-May-22 22:30N 54°36' E 011°01'611.4
2017-May-22 22:01N 54°36' E 011°11'611.8
2017-May-22 21:31N 54°33' E 011°20'1111.4
2017-May-22 20:32N 54°29' E 011°37'011.5
2017-May-22 20:31N 54°29' E 011°38'1711.3
2017-May-22 19:02N 54°27' E 012°06'011.8
2017-May-22 19:01N 54°27' E 012°07'510.7
2017-May-22 18:31N 54°31' E 012°12'611.6
2017-May-22 18:01N 54°37' E 012°15'3211.4
2017-May-22 15:12N 54°52' E 013°04'411.6
2017-May-22 14:52N 54°53' E 013°11'1011.8
2017-May-22 13:59N 54°57' E 013°28'611.6
2017-May-22 13:30N 54°59' E 013°37'611.8
2017-May-22 13:01N 55°01' E 013°46'611.5
2017-May-22 12:30N 55°03' E 013°56'611.4
2017-May-22 12:00N 55°05' E 014°05'611.7
2017-May-22 11:29N 55°10' E 014°12'611.6
2017-May-22 11:00N 55°14' E 014°18'611.9
2017-May-22 10:28N 55°19' E 014°24'612.4
2017-May-22 10:00N 55°24' E 014°31'612.0
2017-May-22 09:31N 55°28' E 014°39'612.4
2017-May-22 09:01N 55°30' E 014°48'612.5
2017-May-22 08:30N 55°33' E 014°58'612.4
2017-May-22 08:01N 55°36' E 015°08'612.3
2017-May-22 07:31N 55°38' E 015°18'612.5
2017-May-22 07:01N 55°39' E 015°29'612.6
2017-May-22 06:31N 55°41' E 015°40'612.4
2017-May-22 06:01N 55°43' E 015°51'612.3
2017-May-22 05:31N 55°44' E 016°01'612.1
2017-May-22 05:01N 55°46' E 016°12'612.2
2017-May-22 04:31N 55°47' E 016°22'612.4
2017-May-22 04:01N 55°49' E 016°33'612.4
2017-May-22 03:31N 55°50' E 016°43'612.4
2017-May-22 03:00N 55°52' E 016°54'1312.5
2017-May-22 01:59N 55°55' E 017°17'612.4
2017-May-22 01:28N 55°57' E 017°27'3412.3
2017-May-21 22:44N 56°13' E 018°20'312.4
2017-May-21 22:30N 56°14' E 018°24'  
Track history (hours):
 
Tides and Currents Weather Stations Pressure Air Temp Water Temp Dewpoint Dewpoint Depression Visibility Wind Speed Wind Dir Waves Ship Positions

LS Concorde

Last reported at 2017-May-30 01:00 UTC. Time now 2017-May-30 01:20 UTC.
Position N 51°16' E 004°21'.

Length 99 m; draft 5.6 m.

Type: Tanker. MMSI: 236329000.

Date/timePositionNaut miles runAvg speedWind from/ knotsBaromVisibWave heightAir tempDewpointWater temp
2017-May-30 01:00N 51°16' E 004°21'0 0.0
2017-May-30 00:30N 51°16' E 004°21'0 0.0
2017-May-30 00:00N 51°16' E 004°21'0 0.0
2017-May-29 23:30N 51°16' E 004°21'0 0.0
2017-May-29 23:00N 51°16' E 004°21'0 0.0
2017-May-29 22:30N 51°16' E 004°21'0 0.0
2017-May-29 22:00N 51°16' E 004°21'0 0.0
2017-May-29 21:24N 51°16' E 004°21'0 0.0
2017-May-29 21:00N 51°16' E 004°21'0 0.0
2017-May-29 20:24N 51°16' E 004°21'0 0.0
2017-May-29 20:00N 51°16' E 004°21'0 0.0
2017-May-29 19:27N 51°16' E 004°21'0 0.0
2017-May-29 19:00N 51°16' E 004°21'0 0.0
2017-May-29 18:30N 51°16' E 004°21'0 0.0
2017-May-29 18:00N 51°16' E 004°21'0 0.0
2017-May-29 17:30N 51°16' E 004°21'0 0.0
2017-May-29 17:00N 51°16' E 004°21'2 3.6
2017-May-29 16:30N 51°17' E 004°20'4 7.5
2017-May-29 16:00N 51°21' E 004°17'0 0.0
2017-May-29 15:30N 51°21' E 004°17'0 0.1
2017-May-29 15:00N 51°21' E 004°17'2 3.3
2017-May-29 14:30N 51°21' E 004°15'4 3.9
2017-May-29 13:30N 51°23' E 004°09'3 6.9
2017-May-29 13:00N 51°22' E 004°03'4 8.2
2017-May-29 12:30N 51°26' E 004°00'611.8
2017-May-29 12:00N 51°22' E 003°54'612.1
2017-May-29 11:30N 51°22' E 003°45'612.9
2017-May-29 11:00N 51°25' E 003°36'5 9.3
2017-May-29 10:30N 51°29' E 003°30'713.9
2017-May-29 10:01N 51°34' E 003°24'1012.6
2017-May-29 09:12N 51°43' E 003°15'23 9.4
2017-May-29 06:47N 51°47' E 002°39'411.8
2017-May-29 06:26N 51°50' E 002°34'511.0
2017-May-29 06:00N 51°53' E 002°27'813.2
2017-May-29 05:25N 51°53' E 002°15'513.1
2017-May-29 05:00N 51°52' E 002°06'714.3
2017-May-29 04:31N 51°49' E 001°56'612.5
2017-May-29 04:00N 51°49' E 001°46'612.4
2017-May-29 03:30N 51°51' E 001°37'510.2
2017-May-29 03:00N 51°56' E 001°33'611.3
2017-May-29 02:30N 51°56' E 001°24'4 8.7
2017-May-29 02:00N 51°58' E 001°17'4 7.2
2017-May-29 01:30N 52°00' E 001°13'3 6.3
2017-May-29 01:00N 52°03' E 001°10'0 0.0
2017-May-29 00:30N 52°03' E 001°10'0 0.0
2017-May-29 00:00N 52°03' E 001°10'0 0.0
2017-May-28 23:30N 52°03' E 001°10'0 0.0
2017-May-28 23:00N 52°03' E 001°10'0 0.0
2017-May-28 22:30N 52°03' E 001°10'0 0.0
2017-May-28 22:00N 52°03' E 001°10'0 0.0
2017-May-28 21:30N 52°03' E 001°10'0 0.0
2017-May-28 21:00N 52°03' E 001°10'0 0.0
2017-May-28 20:30N 52°03' E 001°10'0 0.0
2017-May-28 20:00N 52°03' E 001°10'0 0.0
2017-May-28 19:30N 52°03' E 001°10'0 0.0
2017-May-28 19:00N 52°03' E 001°10'0 0.0
2017-May-28 18:30N 52°03' E 001°10'0 0.0
2017-May-28 18:00N 52°03' E 001°10'0 0.0
2017-May-28 17:30N 52°03' E 001°10'0 0.0
2017-May-28 17:00N 52°03' E 001°10'0 0.0
2017-May-28 16:30N 52°03' E 001°10'0 0.0
2017-May-28 16:00N 52°03' E 001°10'0 0.0
2017-May-28 15:30N 52°03' E 001°10'0 0.0
2017-May-28 15:00N 52°03' E 001°10'0 0.0
2017-May-28 14:00N 52°03' E 001°10'0 0.0
2017-May-28 13:30N 52°03' E 001°10'0 0.0
2017-May-28 13:00N 52°03' E 001°10'0 0.0
2017-May-28 12:30N 52°03' E 001°10'0 0.0
2017-May-28 12:00N 52°03' E 001°10'0 0.0
2017-May-28 11:30N 52°03' E 001°10'0 0.0
2017-May-28 11:00N 52°03' E 001°10'0 0.0
2017-May-28 10:30N 52°03' E 001°10'0 0.0
2017-May-28 10:00N 52°03' E 001°10'0 0.0
2017-May-28 09:30N 52°03' E 001°10'0 0.0
2017-May-28 09:00N 52°03' E 001°10'0 0.0
2017-May-28 08:30N 52°03' E 001°10'0 0.0
2017-May-28 08:00N 52°03' E 001°10'0 0.0
2017-May-28 07:30N 52°03' E 001°10'0 0.0
2017-May-28 07:00N 52°03' E 001°10'0 0.0
2017-May-28 06:30N 52°03' E 001°10'0 0.0
2017-May-28 06:00N 52°03' E 001°10'0 0.0
2017-May-28 05:30N 52°03' E 001°10'1 2.9
2017-May-28 05:00N 52°01' E 001°10'4 7.9
2017-May-28 04:30N 51°59' E 001°16'4 8.7
2017-May-28 04:00N 51°56' E 001°19'510.7
2017-May-28 03:30N 51°56' E 001°28'4 7.7
2017-May-28 03:00N 51°58' E 001°34'511.0
2017-May-28 02:30N 51°52' E 001°35'510.9
2017-May-28 02:00N 51°51' E 001°44'510.3
2017-May-28 01:30N 51°50' E 001°52'510.0
2017-May-28 01:00N 51°52' E 001°59'510.3
2017-May-28 00:30N 51°54' E 002°07'610.2
2017-May-27 23:57N 51°54' E 002°16'510.6
2017-May-27 23:30N 51°54' E 002°24'1411.6
2017-May-27 22:20N 51°48' E 002°43'412.9
2017-May-27 22:00N 51°46' E 002°50'713.3
2017-May-27 21:29N 51°45' E 003°01'713.5
2017-May-27 20:58N 51°45' E 003°12'511.8
2017-May-27 20:30N 51°41' E 003°18'712.7
2017-May-27 20:00N 51°35' E 003°24'612.7
2017-May-27 19:30N 51°30' E 003°29'612.1
2017-May-27 19:00N 51°26' E 003°37'510.8
2017-May-27 18:30N 51°23' E 003°43'5 9.5
2017-May-27 18:00N 51°20' E 003°49'1 1.1
2017-May-27 17:30N 51°19' E 003°49'3 6.9
2017-May-27 17:00N 51°16' E 003°50'4 7.1
2017-May-27 16:30N 51°12' E 003°48'0 0.0
2017-May-27 16:00N 51°12' E 003°48'0 0.0
2017-May-27 15:27N 51°12' E 003°48'0 0.0
2017-May-27 14:33N 51°12' E 003°48'0 0.0
2017-May-27 14:15N 51°12' E 003°48'0 0.0
2017-May-27 07:27N 51°12' E 003°48'0 0.0
2017-May-27 06:51N 51°12' E 003°48'0 0.0
2017-May-27 02:51N 51°12' E 003°48'0 0.0
2017-May-27 02:03N 51°12' E 003°48'0 0.0
2017-May-27 01:45N 51°12' E 003°48'0 0.0
2017-May-27 01:21N 51°12' E 003°48'0 0.0
2017-May-27 00:51N 51°12' E 003°48'0 0.0
2017-May-26 23:21N 51°12' E 003°48'0 0.0
2017-May-26 21:45N 51°12' E 003°48'0 0.0
2017-May-26 20:39N 51°12' E 003°48'0 0.0
2017-May-26 20:09N 51°12' E 003°48'0 0.0
2017-May-26 19:33N 51°12' E 003°48'0 0.0
2017-May-26 17:00N 51°12' E 003°48'0 0.1
2017-May-26 16:31N 51°12' E 003°48'3 5.2
2017-May-26 16:00N 51°15' E 003°49'4 7.7
2017-May-26 15:30N 51°19' E 003°50'2 3.2
2017-May-26 15:00N 51°20' E 003°49'7 6.6
2017-May-26 14:00N 51°25' E 003°42'5 8.9
2017-May-26 13:30N 51°26' E 003°35'4 7.3
2017-May-26 13:00N 51°28' E 003°31'4 8.4
2017-May-26 12:30N 51°31' E 003°26'4 8.1
2017-May-26 12:00N 51°35' E 003°24'510.1
2017-May-26 11:30N 51°39' E 003°19'610.8
2017-May-26 11:00N 51°44' E 003°16'611.2
2017-May-26 10:30N 51°49' E 003°21'0 0.1
2017-May-26 09:57N 51°49' E 003°21'0 0.0
2017-May-26 07:54N 51°49' E 003°21'0 0.0
2017-May-26 06:51N 51°49' E 003°21'0 0.1
2017-May-26 06:29N 51°49' E 003°21'0 0.1
2017-May-26 05:59N 51°49' E 003°21'0 0.1
2017-May-26 05:30N 51°49' E 003°21'0 0.0
2017-May-26 05:00N 51°49' E 003°21'0 0.1
2017-May-26 04:30N 51°49' E 003°21'0 0.0
2017-May-26 04:00N 51°49' E 003°21'0 0.0
2017-May-26 03:27N 51°49' E 003°21'0 0.0
2017-May-26 02:36N 51°49' E 003°21'0 0.0
2017-May-26 02:30N 51°49' E 003°21'0 0.0
2017-May-26 01:51N 51°49' E 003°21'0 0.0
2017-May-26 01:27N 51°49' E 003°21'0 0.0
2017-May-26 00:54N 51°49' E 003°21'0 0.0
2017-May-26 00:29N 51°49' E 003°21'0 0.1
2017-May-25 23:00N 51°49' E 003°21'0 0.0
2017-May-25 22:30N 51°49' E 003°21'0 0.0
2017-May-25 21:50N 51°49' E 003°21'0 0.0
2017-May-25 21:30N 51°49' E 003°21'0 0.0
2017-May-25 21:00N 51°49' E 003°21'0 0.0
2017-May-25 20:30N 51°49' E 003°21'0 0.0
2017-May-25 19:27N 51°49' E 003°21'0 0.0
2017-May-25 18:51N 51°49' E 003°21'0 0.0
2017-May-25 18:09N 51°49' E 003°21'0 0.1
2017-May-25 17:39N 51°49' E 003°21'0 0.0
2017-May-25 17:24N 51°49' E 003°21'0 0.0
2017-May-25 17:00N 51°49' E 003°21'0 0.1
2017-May-25 16:27N 51°49' E 003°21'0 0.0
2017-May-25 15:54N 51°49' E 003°21'0 0.1
2017-May-25 15:27N 51°49' E 003°21'0 0.0
2017-May-25 13:50N 51°49' E 003°21'0 0.0
2017-May-25 13:30N 51°49' E 003°21'0 0.0
2017-May-25 12:42N 51°49' E 003°21'0 0.0
2017-May-25 12:24N 51°49' E 003°21'0 0.0
2017-May-25 12:00N 51°49' E 003°21'0 0.1
2017-May-25 11:27N 51°49' E 003°21'0 0.1
2017-May-25 11:00N 51°49' E 003°21'0 0.1
2017-May-25 10:30N 51°49' E 003°21'0 0.0
2017-May-25 09:57N 51°49' E 003°21'0 0.0
2017-May-25 09:30N 51°49' E 003°21'0 0.0
2017-May-25 08:53N 51°49' E 003°21'0 0.0
2017-May-25 08:30N 51°49' E 003°21'0 0.0
2017-May-25 07:57N 51°49' E 003°21'0 0.0
2017-May-25 07:27N 51°49' E 003°21'0 0.0
2017-May-25 06:59N 51°49' E 003°21'0 0.0
2017-May-25 06:30N 51°49' E 003°21'0 0.0
2017-May-25 05:57N 51°49' E 003°21'0 0.0
2017-May-25 05:27N 51°49' E 003°21'0 0.1
2017-May-25 05:00N 51°49' E 003°21'0 0.1
2017-May-25 04:30N 51°49' E 003°21'0 0.0
2017-May-25 04:00N 51°49' E 003°21'0 0.0
2017-May-25 03:03N 51°49' E 003°21'0 0.0
2017-May-25 02:54N 51°49' E 003°21'0 0.0
2017-May-25 02:27N 51°49' E 003°21'0 0.0
2017-May-25 02:00N 51°49' E 003°21'0 0.0
2017-May-25 01:30N 51°49' E 003°21'0 0.0
2017-May-25 00:54N 51°49' E 003°21'0 0.0
2017-May-25 00:27N 51°49' E 003°21'0 0.0
2017-May-24 23:57N 51°49' E 003°21'0 0.0
2017-May-24 23:21N 51°49' E 003°21'0 0.1
2017-May-24 22:17N 51°49' E 003°21'0 0.1
2017-May-24 21:48N 51°49' E 003°21'0 0.0
2017-May-24 21:27N 51°49' E 003°21'0 0.0
2017-May-24 20:57N 51°49' E 003°21'0 0.0
2017-May-24 20:30N 51°49' E 003°21'0 0.0
2017-May-24 19:55N 51°49' E 003°21'0 0.0
2017-May-24 19:24N 51°49' E 003°21'0 0.0
2017-May-24 18:54N 51°49' E 003°21'0 0.0
2017-May-24 17:36N 51°49' E 003°21'0 0.0
2017-May-24 17:27N 51°49' E 003°21'0 0.0
2017-May-24 16:51N 51°49' E 003°21'0 0.1
2017-May-24 16:30N 51°49' E 003°21'0 0.1
2017-May-24 16:00N 51°49' E 003°21'0 0.0
2017-May-24 15:23N 51°49' E 003°21'0 0.0
2017-May-24 15:00N 51°49' E 003°21'0 0.0
2017-May-24 14:27N 51°49' E 003°21'0 0.0
2017-May-24 13:30N 51°49' E 003°21'0 0.0
2017-May-24 12:54N 51°49' E 003°21'0 0.1
2017-May-24 12:30N 51°49' E 003°21'0 0.0
2017-May-24 12:00N 51°49' E 003°21'0 0.0
2017-May-24 11:30N 51°49' E 003°21'0 0.0
2017-May-24 11:00N 51°49' E 003°21'0 0.3
2017-May-24 10:30N 51°49' E 003°21'510.8
2017-May-24 10:00N 51°49' E 003°12'4 8.3
2017-May-24 09:30N 51°51' E 003°17'713.3
2017-May-24 08:57N 51°59' E 003°20'613.6
2017-May-24 08:30N 52°05' E 003°20'713.6
2017-May-24 08:00N 52°12' E 003°21'713.8
2017-May-24 07:30N 52°18' E 003°24'714.0
2017-May-24 06:59N 52°25' E 003°27'914.1
2017-May-24 06:23N 52°34' E 003°30'713.3
2017-May-24 05:49N 52°40' E 003°36'1712.7
2017-May-24 04:30N 52°53' E 003°53'1911.7
2017-May-24 02:50N 53°06' E 004°17'2211.0
2017-May-24 00:50N 53°25' E 004°35'511.6
2017-May-24 00:26N 53°29' E 004°40'613.2
2017-May-23 23:59N 53°31' E 004°50'13111.8
2017-May-23 12:51N 53°59' E 008°27'714.1
2017-May-23 12:20N 53°57' E 008°39'513.1
2017-May-23 11:56N 53°53' E 008°43'511.1
2017-May-23 11:30N 53°50' E 008°51'611.1
2017-May-23 11:00N 53°51' E 008°60'510.6
2017-May-23 10:30N 53°53' E 009°08'1 1.1
2017-May-23 10:00N 53°54' E 009°09'0 1.0
2017-May-23 09:30N 53°54' E 009°09'3 6.4
2017-May-23 09:00N 53°56' E 009°13'4 8.3
2017-May-23 08:30N 53°60' E 009°17'4 8.4
2017-May-23 08:00N 54°04' E 009°19'56 6.7
2017-May-22 23:39N 54°35' E 010°39'211.2
2017-May-22 23:30N 54°35' E 010°41'911.3
2017-May-22 22:43N 54°36' E 010°57'211.3
2017-May-22 22:30N 54°36' E 011°01'611.4
2017-May-22 22:01N 54°36' E 011°11'611.8
2017-May-22 21:31N 54°33' E 011°20'1111.4
2017-May-22 20:32N 54°29' E 011°37'011.5
2017-May-22 20:31N 54°29' E 011°38'1711.3
2017-May-22 19:02N 54°27' E 012°06'011.8
2017-May-22 19:01N 54°27' E 012°07'510.7
2017-May-22 18:31N 54°31' E 012°12'611.6
2017-May-22 18:01N 54°37' E 012°15'3211.4
2017-May-22 15:12N 54°52' E 013°04'411.6
2017-May-22 14:52N 54°53' E 013°11'1011.8
2017-May-22 13:59N 54°57' E 013°28'611.6
2017-May-22 13:30N 54°59' E 013°37'611.8
2017-May-22 13:01N 55°01' E 013°46'611.5
2017-May-22 12:30N 55°03' E 013°56'611.4
2017-May-22 12:00N 55°05' E 014°05'611.7
2017-May-22 11:29N 55°10' E 014°12'611.6
2017-May-22 11:00N 55°14' E 014°18'611.9
2017-May-22 10:28N 55°19' E 014°24'612.4
2017-May-22 10:00N 55°24' E 014°31'612.0
2017-May-22 09:31N 55°28' E 014°39'612.4
2017-May-22 09:01N 55°30' E 014°48'612.5
2017-May-22 08:30N 55°33' E 014°58'612.4
2017-May-22 08:01N 55°36' E 015°08'612.3
2017-May-22 07:31N 55°38' E 015°18'612.5
2017-May-22 07:01N 55°39' E 015°29'612.6
2017-May-22 06:31N 55°41' E 015°40'612.4
2017-May-22 06:01N 55°43' E 015°51'612.3
2017-May-22 05:31N 55°44' E 016°01'612.1
2017-May-22 05:01N 55°46' E 016°12'612.2
2017-May-22 04:31N 55°47' E 016°22'612.4
2017-May-22 04:01N 55°49' E 016°33'612.4
2017-May-22 03:31N 55°50' E 016°43'612.4
2017-May-22 03:00N 55°52' E 016°54'1312.5
2017-May-22 01:59N 55°55' E 017°17'612.4
2017-May-22 01:28N 55°57' E 017°27'3412.3
2017-May-21 22:44N 56°13' E 018°20'312.4
2017-May-21 22:30N 56°14' E 018°24'  

Dump ship's entire track history